sensor_id;sensor_type;location;lat;lon;timestamp;P1;durP1;ratioP1;P2;durP2;ratioP2
13040;SDS011;6587;42.728;23.288;2022-10-16T00:02:22;20.13;;;13.50;;
13040;SDS011;6587;42.728;23.288;2022-10-16T00:04:49;22.73;;;13.20;;
13040;SDS011;6587;42.728;23.288;2022-10-16T00:07:16;21.63;;;13.23;;
13040;SDS011;6587;42.728;23.288;2022-10-16T00:09:42;20.47;;;13.20;;
13040;SDS011;6587;42.728;23.288;2022-10-16T00:12:09;18.20;;;12.97;;
13040;SDS011;6587;42.728;23.288;2022-10-16T00:14:36;18.23;;;12.20;;
13040;SDS011;6587;42.728;23.288;2022-10-16T00:17:02;18.97;;;12.17;;
13040;SDS011;6587;42.728;23.288;2022-10-16T00:19:30;23.93;;;11.93;;
13040;SDS011;6587;42.728;23.288;2022-10-16T00:21:57;17.90;;;10.97;;
13040;SDS011;6587;42.728;23.288;2022-10-16T00:24:23;20.33;;;12.23;;
13040;SDS011;6587;42.728;23.288;2022-10-16T00:26:50;17.73;;;11.73;;
13040;SDS011;6587;42.728;23.288;2022-10-16T00:29:17;16.43;;;11.10;;
13040;SDS011;6587;42.728;23.288;2022-10-16T00:31:43;17.50;;;10.50;;
13040;SDS011;6587;42.728;23.288;2022-10-16T00:34:10;14.87;;;10.23;;
13040;SDS011;6587;42.728;23.288;2022-10-16T00:36:38;19.70;;;12.57;;
13040;SDS011;6587;42.728;23.288;2022-10-16T00:39:05;18.57;;;12.63;;
13040;SDS011;6587;42.728;23.288;2022-10-16T00:41:32;22.90;;;13.97;;
13040;SDS011;6587;42.728;23.288;2022-10-16T00:43:59;28.50;;;15.20;;
13040;SDS011;6587;42.728;23.288;2022-10-16T00:46:27;23.73;;;14.37;;
13040;SDS011;6587;42.728;23.288;2022-10-16T00:48:55;27.63;;;14.37;;
13040;SDS011;6587;42.728;23.288;2022-10-16T00:51:25;22.00;;;13.40;;
13040;SDS011;6587;42.728;23.288;2022-10-16T00:53:54;22.93;;;13.83;;
13040;SDS011;6587;42.728;23.288;2022-10-16T00:56:20;20.17;;;12.50;;
13040;SDS011;6587;42.728;23.288;2022-10-16T00:58:47;20.57;;;11.43;;
13040;SDS011;6587;42.728;23.288;2022-10-16T01:01:14;17.90;;;11.93;;
13040;SDS011;6587;42.728;23.288;2022-10-16T01:03:41;19.70;;;11.57;;
13040;SDS011;6587;42.728;23.288;2022-10-16T01:06:10;14.77;;;10.67;;
13040;SDS011;6587;42.728;23.288;2022-10-16T01:08:44;15.90;;;10.43;;
13040;SDS011;6587;42.728;23.288;2022-10-16T01:11:15;15.90;;;10.90;;
13040;SDS011;6587;42.728;23.288;2022-10-16T01:13:46;19.00;;;11.97;;
13040;SDS011;6587;42.728;23.288;2022-10-16T01:16:17;17.27;;;11.33;;
13040;SDS011;6587;42.728;23.288;2022-10-16T01:18:46;22.50;;;13.10;;
13040;SDS011;6587;42.728;23.288;2022-10-16T01:21:15;17.93;;;11.93;;
13040;SDS011;6587;42.728;23.288;2022-10-16T01:23:44;16.70;;;11.13;;
13040;SDS011;6587;42.728;23.288;2022-10-16T01:26:18;15.37;;;9.50;;
13040;SDS011;6587;42.728;23.288;2022-10-16T01:28:51;15.67;;;9.67;;
13040;SDS011;6587;42.728;23.288;2022-10-16T01:31:20;16.77;;;10.30;;
13040;SDS011;6587;42.728;23.288;2022-10-16T01:33:50;15.57;;;10.17;;
13040;SDS011;6587;42.728;23.288;2022-10-16T01:36:18;13.80;;;9.33;;
13040;SDS011;6587;42.728;23.288;2022-10-16T01:38:48;14.77;;;9.97;;
13040;SDS011;6587;42.728;23.288;2022-10-16T01:41:17;16.90;;;10.00;;
13040;SDS011;6587;42.728;23.288;2022-10-16T01:43:46;16.43;;;10.00;;
13040;SDS011;6587;42.728;23.288;2022-10-16T01:46:17;16.23;;;10.20;;
13040;SDS011;6587;42.728;23.288;2022-10-16T01:48:44;14.97;;;10.10;;
13040;SDS011;6587;42.728;23.288;2022-10-16T01:51:12;17.87;;;10.40;;
13040;SDS011;6587;42.728;23.288;2022-10-16T01:53:39;18.17;;;10.87;;
13040;SDS011;6587;42.728;23.288;2022-10-16T01:56:09;17.07;;;10.33;;
13040;SDS011;6587;42.728;23.288;2022-10-16T01:58:37;16.77;;;10.07;;
13040;SDS011;6587;42.728;23.288;2022-10-16T02:01:06;15.87;;;10.73;;
13040;SDS011;6587;42.728;23.288;2022-10-16T02:03:36;19.33;;;10.17;;
13040;SDS011;6587;42.728;23.288;2022-10-16T02:06:04;13.13;;;9.30;;
13040;SDS011;6587;42.728;23.288;2022-10-16T02:08:30;14.33;;;9.00;;
13040;SDS011;6587;42.728;23.288;2022-10-16T02:10:58;13.97;;;8.57;;
13040;SDS011;6587;42.728;23.288;2022-10-16T02:13:27;12.73;;;8.90;;
13040;SDS011;6587;42.728;23.288;2022-10-16T02:15:56;16.47;;;10.13;;
13040;SDS011;6587;42.728;23.288;2022-10-16T02:18:23;14.90;;;9.17;;
13040;SDS011;6587;42.728;23.288;2022-10-16T02:20:57;12.77;;;9.60;;
13040;SDS011;6587;42.728;23.288;2022-10-16T02:23:27;16.43;;;9.03;;
13040;SDS011;6587;42.728;23.288;2022-10-16T02:25:56;16.30;;;10.33;;
13040;SDS011;6587;42.728;23.288;2022-10-16T02:28:26;18.83;;;10.93;;
13040;SDS011;6587;42.728;23.288;2022-10-16T02:30:55;16.03;;;10.17;;
13040;SDS011;6587;42.728;23.288;2022-10-16T02:33:23;18.87;;;11.27;;
13040;SDS011;6587;42.728;23.288;2022-10-16T02:35:50;15.83;;;9.87;;
13040;SDS011;6587;42.728;23.288;2022-10-16T02:38:19;18.77;;;11.00;;
13040;SDS011;6587;42.728;23.288;2022-10-16T02:40:46;16.07;;;10.80;;
13040;SDS011;6587;42.728;23.288;2022-10-16T02:43:13;16.60;;;10.50;;
13040;SDS011;6587;42.728;23.288;2022-10-16T02:45:40;17.27;;;11.27;;
13040;SDS011;6587;42.728;23.288;2022-10-16T02:48:06;17.43;;;11.40;;
13040;SDS011;6587;42.728;23.288;2022-10-16T02:50:33;18.00;;;10.83;;
13040;SDS011;6587;42.728;23.288;2022-10-16T02:53:01;17.83;;;10.50;;
13040;SDS011;6587;42.728;23.288;2022-10-16T02:55:29;17.20;;;10.93;;
13040;SDS011;6587;42.728;23.288;2022-10-16T02:57:56;21.33;;;11.83;;
13040;SDS011;6587;42.728;23.288;2022-10-16T03:00:23;19.83;;;11.53;;
13040;SDS011;6587;42.728;23.288;2022-10-16T03:02:49;20.63;;;11.87;;
13040;SDS011;6587;42.728;23.288;2022-10-16T03:05:16;17.60;;;11.10;;
13040;SDS011;6587;42.728;23.288;2022-10-16T03:07:43;19.00;;;11.00;;
13040;SDS011;6587;42.728;23.288;2022-10-16T03:10:10;19.03;;;10.77;;
13040;SDS011;6587;42.728;23.288;2022-10-16T03:12:38;19.70;;;11.37;;
13040;SDS011;6587;42.728;23.288;2022-10-16T03:15:05;21.27;;;11.63;;
13040;SDS011;6587;42.728;23.288;2022-10-16T03:17:32;19.37;;;11.50;;
13040;SDS011;6587;42.728;23.288;2022-10-16T03:19:59;19.40;;;10.47;;
13040;SDS011;6587;42.728;23.288;2022-10-16T03:22:26;21.50;;;11.10;;
13040;SDS011;6587;42.728;23.288;2022-10-16T03:24:53;17.20;;;10.60;;
13040;SDS011;6587;42.728;23.288;2022-10-16T03:27:20;19.30;;;10.83;;
13040;SDS011;6587;42.728;23.288;2022-10-16T03:29:51;18.07;;;10.43;;
13040;SDS011;6587;42.728;23.288;2022-10-16T03:32:17;15.80;;;10.03;;
13040;SDS011;6587;42.728;23.288;2022-10-16T03:34:45;17.30;;;10.10;;
13040;SDS011;6587;42.728;23.288;2022-10-16T03:37:14;21.03;;;10.10;;
13040;SDS011;6587;42.728;23.288;2022-10-16T03:39:41;17.73;;;9.03;;
13040;SDS011;6587;42.728;23.288;2022-10-16T03:42:07;15.27;;;9.00;;
13040;SDS011;6587;42.728;23.288;2022-10-16T03:44:34;15.63;;;9.60;;
13040;SDS011;6587;42.728;23.288;2022-10-16T03:47:02;14.63;;;10.10;;
13040;SDS011;6587;42.728;23.288;2022-10-16T03:49:28;16.27;;;10.67;;
13040;SDS011;6587;42.728;23.288;2022-10-16T03:51:55;24.03;;;10.47;;
13040;SDS011;6587;42.728;23.288;2022-10-16T03:54:22;18.33;;;11.30;;
13040;SDS011;6587;42.728;23.288;2022-10-16T03:56:48;20.53;;;12.03;;
13040;SDS011;6587;42.728;23.288;2022-10-16T03:59:15;19.67;;;12.30;;
13040;SDS011;6587;42.728;23.288;2022-10-16T04:01:42;22.97;;;12.13;;
13040;SDS011;6587;42.728;23.288;2022-10-16T04:04:10;19.53;;;12.30;;
13040;SDS011;6587;42.728;23.288;2022-10-16T04:06:37;19.37;;;12.20;;
13040;SDS011;6587;42.728;23.288;2022-10-16T04:09:04;16.67;;;11.30;;
13040;SDS011;6587;42.728;23.288;2022-10-16T04:11:30;22.93;;;11.93;;
13040;SDS011;6587;42.728;23.288;2022-10-16T04:13:57;20.00;;;10.97;;
13040;SDS011;6587;42.728;23.288;2022-10-16T04:16:23;19.27;;;12.07;;
13040;SDS011;6587;42.728;23.288;2022-10-16T04:18:50;17.33;;;11.83;;
13040;SDS011;6587;42.728;23.288;2022-10-16T04:21:18;22.70;;;12.53;;
13040;SDS011;6587;42.728;23.288;2022-10-16T04:23:45;21.33;;;13.03;;
13040;SDS011;6587;42.728;23.288;2022-10-16T04:26:11;23.33;;;13.30;;
13040;SDS011;6587;42.728;23.288;2022-10-16T04:28:38;26.83;;;15.87;;
13040;SDS011;6587;42.728;23.288;2022-10-16T04:31:05;23.00;;;14.57;;
13040;SDS011;6587;42.728;23.288;2022-10-16T04:33:32;23.00;;;14.20;;
13040;SDS011;6587;42.728;23.288;2022-10-16T04:35:58;25.67;;;13.90;;
13040;SDS011;6587;42.728;23.288;2022-10-16T04:38:27;24.20;;;12.63;;
13040;SDS011;6587;42.728;23.288;2022-10-16T04:40:53;21.83;;;12.97;;
13040;SDS011;6587;42.728;23.288;2022-10-16T04:43:20;20.30;;;12.97;;
13040;SDS011;6587;42.728;23.288;2022-10-16T04:45:47;21.70;;;13.33;;
13040;SDS011;6587;42.728;23.288;2022-10-16T04:48:15;27.87;;;14.77;;
13040;SDS011;6587;42.728;23.288;2022-10-16T04:50:42;31.13;;;16.57;;
13040;SDS011;6587;42.728;23.288;2022-10-16T04:53:09;30.53;;;17.37;;
13040;SDS011;6587;42.728;23.288;2022-10-16T04:55:37;29.27;;;16.70;;
13040;SDS011;6587;42.728;23.288;2022-10-16T04:58:04;29.03;;;15.83;;
13040;SDS011;6587;42.728;23.288;2022-10-16T05:00:31;27.77;;;15.97;;
13040;SDS011;6587;42.728;23.288;2022-10-16T05:02:57;24.10;;;14.17;;
13040;SDS011;6587;42.728;23.288;2022-10-16T05:05:25;25.67;;;13.03;;
13040;SDS011;6587;42.728;23.288;2022-10-16T05:07:52;18.50;;;12.27;;
13040;SDS011;6587;42.728;23.288;2022-10-16T05:10:19;25.00;;;14.93;;
13040;SDS011;6587;42.728;23.288;2022-10-16T05:12:47;23.20;;;14.13;;
13040;SDS011;6587;42.728;23.288;2022-10-16T05:15:14;24.50;;;14.63;;
13040;SDS011;6587;42.728;23.288;2022-10-16T05:17:40;24.27;;;16.03;;
13040;SDS011;6587;42.728;23.288;2022-10-16T05:20:07;29.40;;;18.40;;
13040;SDS011;6587;42.728;23.288;2022-10-16T05:22:34;31.43;;;19.63;;
13040;SDS011;6587;42.728;23.288;2022-10-16T05:25:00;31.13;;;18.27;;
13040;SDS011;6587;42.728;23.288;2022-10-16T05:27:27;32.60;;;19.27;;
13040;SDS011;6587;42.728;23.288;2022-10-16T05:29:55;25.80;;;18.10;;
13040;SDS011;6587;42.728;23.288;2022-10-16T05:32:21;50.40;;;26.87;;
13040;SDS011;6587;42.728;23.288;2022-10-16T05:34:48;68.63;;;39.30;;
13040;SDS011;6587;42.728;23.288;2022-10-16T05:37:14;27.50;;;16.67;;
13040;SDS011;6587;42.728;23.288;2022-10-16T05:39:41;33.13;;;20.40;;
13040;SDS011;6587;42.728;23.288;2022-10-16T05:42:08;40.00;;;23.10;;
13040;SDS011;6587;42.728;23.288;2022-10-16T05:44:34;44.83;;;25.10;;
13040;SDS011;6587;42.728;23.288;2022-10-16T05:47:02;43.87;;;25.83;;
13040;SDS011;6587;42.728;23.288;2022-10-16T05:49:29;32.53;;;19.07;;
13040;SDS011;6587;42.728;23.288;2022-10-16T05:51:55;30.93;;;18.47;;
13040;SDS011;6587;42.728;23.288;2022-10-16T05:54:22;22.93;;;13.60;;
13040;SDS011;6587;42.728;23.288;2022-10-16T05:56:49;24.20;;;14.33;;
13040;SDS011;6587;42.728;23.288;2022-10-16T05:59:15;24.77;;;14.43;;
13040;SDS011;6587;42.728;23.288;2022-10-16T06:01:42;29.27;;;14.80;;
13040;SDS011;6587;42.728;23.288;2022-10-16T06:04:10;56.53;;;30.53;;
13040;SDS011;6587;42.728;23.288;2022-10-16T06:06:36;40.17;;;21.30;;
13040;SDS011;6587;42.728;23.288;2022-10-16T06:09:03;27.33;;;16.47;;
13040;SDS011;6587;42.728;23.288;2022-10-16T06:11:30;27.83;;;15.73;;
13040;SDS011;6587;42.728;23.288;2022-10-16T06:13:58;23.40;;;14.57;;
13040;SDS011;6587;42.728;23.288;2022-10-16T06:16:27;24.97;;;15.23;;
13040;SDS011;6587;42.728;23.288;2022-10-16T06:18:53;23.93;;;14.33;;
13040;SDS011;6587;42.728;23.288;2022-10-16T06:21:22;22.03;;;11.87;;
13040;SDS011;6587;42.728;23.288;2022-10-16T06:23:50;17.30;;;10.37;;
13040;SDS011;6587;42.728;23.288;2022-10-16T06:26:17;21.27;;;11.00;;
13040;SDS011;6587;42.728;23.288;2022-10-16T06:28:45;18.73;;;10.60;;
13040;SDS011;6587;42.728;23.288;2022-10-16T06:31:12;16.13;;;11.00;;
13040;SDS011;6587;42.728;23.288;2022-10-16T06:33:39;16.13;;;10.37;;
13040;SDS011;6587;42.728;23.288;2022-10-16T06:36:06;17.07;;;10.57;;
13040;SDS011;6587;42.728;23.288;2022-10-16T06:38:35;20.07;;;11.83;;
13040;SDS011;6587;42.728;23.288;2022-10-16T06:41:02;14.03;;;9.87;;
13040;SDS011;6587;42.728;23.288;2022-10-16T06:43:29;18.13;;;10.47;;
13040;SDS011;6587;42.728;23.288;2022-10-16T06:45:57;16.93;;;9.07;;
13040;SDS011;6587;42.728;23.288;2022-10-16T06:48:24;15.13;;;9.37;;
13040;SDS011;6587;42.728;23.288;2022-10-16T06:50:55;14.00;;;9.37;;
13040;SDS011;6587;42.728;23.288;2022-10-16T06:53:21;15.30;;;9.90;;
13040;SDS011;6587;42.728;23.288;2022-10-16T06:55:49;15.60;;;10.50;;
13040;SDS011;6587;42.728;23.288;2022-10-16T06:58:16;15.33;;;10.23;;
13040;SDS011;6587;42.728;23.288;2022-10-16T07:00:43;17.03;;;10.10;;
13040;SDS011;6587;42.728;23.288;2022-10-16T07:03:09;14.43;;;9.50;;
13040;SDS011;6587;42.728;23.288;2022-10-16T07:05:37;13.17;;;9.37;;
13040;SDS011;6587;42.728;23.288;2022-10-16T07:08:04;14.47;;;9.67;;
13040;SDS011;6587;42.728;23.288;2022-10-16T07:10:30;16.20;;;9.27;;
13040;SDS011;6587;42.728;23.288;2022-10-16T07:12:58;13.73;;;9.30;;
13040;SDS011;6587;42.728;23.288;2022-10-16T07:15:25;16.17;;;9.00;;
13040;SDS011;6587;42.728;23.288;2022-10-16T07:17:52;13.77;;;9.30;;
13040;SDS011;6587;42.728;23.288;2022-10-16T07:20:19;14.13;;;9.63;;
13040;SDS011;6587;42.728;23.288;2022-10-16T07:22:45;14.90;;;9.47;;
13040;SDS011;6587;42.728;23.288;2022-10-16T07:25:12;13.10;;;8.47;;
13040;SDS011;6587;42.728;23.288;2022-10-16T07:27:39;15.93;;;8.27;;
13040;SDS011;6587;42.728;23.288;2022-10-16T07:30:07;14.30;;;9.67;;
13040;SDS011;6587;42.728;23.288;2022-10-16T07:32:34;15.97;;;9.03;;
13040;SDS011;6587;42.728;23.288;2022-10-16T07:35:01;17.07;;;9.93;;
13040;SDS011;6587;42.728;23.288;2022-10-16T07:37:27;13.07;;;9.20;;
13040;SDS011;6587;42.728;23.288;2022-10-16T07:39:54;12.47;;;8.20;;
13040;SDS011;6587;42.728;23.288;2022-10-16T07:42:21;13.70;;;8.77;;
13040;SDS011;6587;42.728;23.288;2022-10-16T07:44:48;16.00;;;9.20;;
13040;SDS011;6587;42.728;23.288;2022-10-16T07:47:16;16.47;;;10.23;;
13040;SDS011;6587;42.728;23.288;2022-10-16T07:49:43;15.97;;;10.50;;
13040;SDS011;6587;42.728;23.288;2022-10-16T07:52:09;17.40;;;10.60;;
13040;SDS011;6587;42.728;23.288;2022-10-16T07:54:36;16.23;;;11.60;;
13040;SDS011;6587;42.728;23.288;2022-10-16T07:57:02;14.07;;;10.83;;
13040;SDS011;6587;42.728;23.288;2022-10-16T07:59:29;17.30;;;11.80;;
13040;SDS011;6587;42.728;23.288;2022-10-16T08:01:56;15.13;;;11.70;;
13040;SDS011;6587;42.728;23.288;2022-10-16T08:04:24;16.83;;;10.90;;
13040;SDS011;6587;42.728;23.288;2022-10-16T08:06:50;16.03;;;10.97;;
13040;SDS011;6587;42.728;23.288;2022-10-16T08:09:17;15.37;;;11.50;;
13040;SDS011;6587;42.728;23.288;2022-10-16T08:11:44;17.73;;;11.23;;
13040;SDS011;6587;42.728;23.288;2022-10-16T08:14:10;16.57;;;10.73;;
13040;SDS011;6587;42.728;23.288;2022-10-16T08:16:37;14.53;;;10.43;;
13040;SDS011;6587;42.728;23.288;2022-10-16T08:19:03;14.10;;;10.03;;
13040;SDS011;6587;42.728;23.288;2022-10-16T08:21:31;15.27;;;10.60;;
13040;SDS011;6587;42.728;23.288;2022-10-16T08:23:58;18.87;;;10.90;;
13040;SDS011;6587;42.728;23.288;2022-10-16T08:26:26;14.50;;;9.83;;
13040;SDS011;6587;42.728;23.288;2022-10-16T08:28:53;16.87;;;9.37;;
13040;SDS011;6587;42.728;23.288;2022-10-16T08:31:20;16.93;;;9.57;;
13040;SDS011;6587;42.728;23.288;2022-10-16T08:33:46;16.37;;;10.27;;
13040;SDS011;6587;42.728;23.288;2022-10-16T08:36:13;13.23;;;8.80;;
13040;SDS011;6587;42.728;23.288;2022-10-16T08:38:41;12.43;;;9.27;;
13040;SDS011;6587;42.728;23.288;2022-10-16T08:41:13;14.37;;;8.50;;
13040;SDS011;6587;42.728;23.288;2022-10-16T08:43:43;10.43;;;8.17;;
13040;SDS011;6587;42.728;23.288;2022-10-16T08:46:21;16.53;;;9.10;;
13040;SDS011;6587;42.728;23.288;2022-10-16T08:48:53;13.00;;;8.43;;
13040;SDS011;6587;42.728;23.288;2022-10-16T08:51:22;10.80;;;7.50;;
13040;SDS011;6587;42.728;23.288;2022-10-16T08:53:53;9.63;;;7.17;;
13040;SDS011;6587;42.728;23.288;2022-10-16T08:56:21;8.67;;;6.80;;
13040;SDS011;6587;42.728;23.288;2022-10-16T08:58:47;10.17;;;6.60;;
13040;SDS011;6587;42.728;23.288;2022-10-16T09:01:15;9.93;;;6.80;;
13040;SDS011;6587;42.728;23.288;2022-10-16T09:03:46;8.33;;;5.50;;
13040;SDS011;6587;42.728;23.288;2022-10-16T09:06:18;9.73;;;6.30;;
13040;SDS011;6587;42.728;23.288;2022-10-16T09:08:47;5.57;;;4.60;;
13040;SDS011;6587;42.728;23.288;2022-10-16T09:11:20;5.03;;;4.40;;
13040;SDS011;6587;42.728;23.288;2022-10-16T09:13:50;7.53;;;4.93;;
13040;SDS011;6587;42.728;23.288;2022-10-16T09:16:19;6.67;;;4.70;;
13040;SDS011;6587;42.728;23.288;2022-10-16T09:18:48;5.80;;;4.80;;
13040;SDS011;6587;42.728;23.288;2022-10-16T09:21:18;6.30;;;5.30;;
13040;SDS011;6587;42.728;23.288;2022-10-16T09:23:46;5.63;;;4.40;;
13040;SDS011;6587;42.728;23.288;2022-10-16T09:26:13;5.60;;;4.40;;
13040;SDS011;6587;42.728;23.288;2022-10-16T09:28:42;7.93;;;4.97;;
13040;SDS011;6587;42.728;23.288;2022-10-16T09:31:12;5.53;;;4.40;;
13040;SDS011;6587;42.728;23.288;2022-10-16T09:33:40;6.17;;;5.00;;
13040;SDS011;6587;42.728;23.288;2022-10-16T09:36:08;6.57;;;4.50;;
13040;SDS011;6587;42.728;23.288;2022-10-16T09:38:35;6.20;;;4.23;;
13040;SDS011;6587;42.728;23.288;2022-10-16T09:41:02;6.07;;;4.30;;
13040;SDS011;6587;42.728;23.288;2022-10-16T09:43:32;6.10;;;4.07;;
13040;SDS011;6587;42.728;23.288;2022-10-16T09:46:02;12.43;;;6.70;;
13040;SDS011;6587;42.728;23.288;2022-10-16T09:48:31;8.40;;;4.77;;
13040;SDS011;6587;42.728;23.288;2022-10-16T09:51:00;5.10;;;4.13;;
13040;SDS011;6587;42.728;23.288;2022-10-16T09:53:37;5.37;;;4.07;;
13040;SDS011;6587;42.728;23.288;2022-10-16T09:56:04;5.80;;;4.03;;
13040;SDS011;6587;42.728;23.288;2022-10-16T09:58:31;5.80;;;4.50;;
13040;SDS011;6587;42.728;23.288;2022-10-16T10:01:00;6.10;;;4.23;;
13040;SDS011;6587;42.728;23.288;2022-10-16T10:03:33;6.53;;;4.27;;
13040;SDS011;6587;42.728;23.288;2022-10-16T10:06:06;5.53;;;3.67;;
13040;SDS011;6587;42.728;23.288;2022-10-16T10:08:33;8.43;;;4.47;;
13040;SDS011;6587;42.728;23.288;2022-10-16T10:11:00;5.97;;;4.10;;
13040;SDS011;6587;42.728;23.288;2022-10-16T10:13:26;4.50;;;3.93;;
13040;SDS011;6587;42.728;23.288;2022-10-16T10:15:53;5.83;;;4.23;;
13040;SDS011;6587;42.728;23.288;2022-10-16T10:18:20;5.57;;;3.90;;
13040;SDS011;6587;42.728;23.288;2022-10-16T10:20:58;5.73;;;4.00;;
13040;SDS011;6587;42.728;23.288;2022-10-16T10:23:25;5.90;;;4.33;;
13040;SDS011;6587;42.728;23.288;2022-10-16T10:25:53;6.57;;;4.20;;
13040;SDS011;6587;42.728;23.288;2022-10-16T10:28:26;4.77;;;4.03;;
13040;SDS011;6587;42.728;23.288;2022-10-16T10:31:00;4.30;;;3.73;;
13040;SDS011;6587;42.728;23.288;2022-10-16T10:33:31;8.37;;;3.97;;
13040;SDS011;6587;42.728;23.288;2022-10-16T10:36:05;6.63;;;4.20;;
13040;SDS011;6587;42.728;23.288;2022-10-16T10:38:37;4.70;;;4.20;;
13040;SDS011;6587;42.728;23.288;2022-10-16T10:41:09;8.60;;;4.93;;
13040;SDS011;6587;42.728;23.288;2022-10-16T10:43:44;4.87;;;3.73;;
13040;SDS011;6587;42.728;23.288;2022-10-16T10:46:18;7.03;;;4.53;;
13040;SDS011;6587;42.728;23.288;2022-10-16T10:48:51;4.60;;;3.50;;
13040;SDS011;6587;42.728;23.288;2022-10-16T10:51:23;5.13;;;3.72;;
13040;SDS011;6587;42.728;23.288;2022-10-16T10:53:55;4.85;;;3.78;;
13040;SDS011;6587;42.728;23.288;2022-10-16T10:56:30;4.63;;;3.97;;
13040;SDS011;6587;42.728;23.288;2022-10-16T10:59:19;4.60;;;3.78;;
13040;SDS011;6587;42.728;23.288;2022-10-16T11:01:53;5.90;;;3.88;;
13040;SDS011;6587;42.728;23.288;2022-10-16T11:04:34;5.93;;;4.38;;
13040;SDS011;6587;42.728;23.288;2022-10-16T11:07:05;5.93;;;3.60;;
13040;SDS011;6587;42.728;23.288;2022-10-16T11:09:36;5.72;;;3.92;;
13040;SDS011;6587;42.728;23.288;2022-10-16T11:12:05;6.28;;;3.97;;
13040;SDS011;6587;42.728;23.288;2022-10-16T11:14:34;6.03;;;4.38;;
13040;SDS011;6587;42.728;23.288;2022-10-16T11:17:02;4.55;;;3.70;;
13040;SDS011;6587;42.728;23.288;2022-10-16T11:19:35;6.82;;;4.38;;
13040;SDS011;6587;42.728;23.288;2022-10-16T11:22:09;6.93;;;3.97;;
13040;SDS011;6587;42.728;23.288;2022-10-16T11:24:41;4.95;;;4.20;;
13040;SDS011;6587;42.728;23.288;2022-10-16T11:27:10;6.93;;;3.90;;
13040;SDS011;6587;42.728;23.288;2022-10-16T11:29:41;5.45;;;4.18;;
13040;SDS011;6587;42.728;23.288;2022-10-16T11:32:14;6.53;;;4.15;;
13040;SDS011;6587;42.728;23.288;2022-10-16T11:34:43;5.10;;;3.83;;
13040;SDS011;6587;42.728;23.288;2022-10-16T11:37:14;4.95;;;3.60;;
13040;SDS011;6587;42.728;23.288;2022-10-16T11:39:42;4.60;;;3.40;;
13040;SDS011;6587;42.728;23.288;2022-10-16T11:42:11;4.03;;;3.50;;
13040;SDS011;6587;42.728;23.288;2022-10-16T11:44:44;5.15;;;4.07;;
13040;SDS011;6587;42.728;23.288;2022-10-16T11:47:25;4.65;;;3.90;;
13040;SDS011;6587;42.728;23.288;2022-10-16T11:49:56;4.28;;;3.35;;
13040;SDS011;6587;42.728;23.288;2022-10-16T11:52:28;4.15;;;3.75;;
13040;SDS011;6587;42.728;23.288;2022-10-16T11:54:57;4.82;;;3.50;;
13040;SDS011;6587;42.728;23.288;2022-10-16T11:57:26;5.47;;;3.70;;
13040;SDS011;6587;42.728;23.288;2022-10-16T11:59:55;5.70;;;3.80;;
13040;SDS011;6587;42.728;23.288;2022-10-16T12:02:26;4.60;;;3.42;;
13040;SDS011;6587;42.728;23.288;2022-10-16T12:04:56;3.80;;;3.42;;
13040;SDS011;6587;42.728;23.288;2022-10-16T12:07:32;4.13;;;3.47;;
13040;SDS011;6587;42.728;23.288;2022-10-16T12:09:58;5.43;;;3.90;;
13040;SDS011;6587;42.728;23.288;2022-10-16T12:12:37;4.22;;;3.38;;
13040;SDS011;6587;42.728;23.288;2022-10-16T12:15:18;4.53;;;3.45;;
13040;SDS011;6587;42.728;23.288;2022-10-16T12:17:45;4.70;;;3.47;;
13040;SDS011;6587;42.728;23.288;2022-10-16T12:20:19;4.72;;;3.20;;
13040;SDS011;6587;42.728;23.288;2022-10-16T12:22:49;5.28;;;3.65;;
13040;SDS011;6587;42.728;23.288;2022-10-16T12:25:20;4.68;;;3.53;;
13040;SDS011;6587;42.728;23.288;2022-10-16T12:27:53;5.68;;;3.30;;
13040;SDS011;6587;42.728;23.288;2022-10-16T12:30:20;4.25;;;3.70;;
13040;SDS011;6587;42.728;23.288;2022-10-16T12:32:52;5.32;;;3.65;;
13040;SDS011;6587;42.728;23.288;2022-10-16T12:35:20;5.18;;;3.30;;
13040;SDS011;6587;42.728;23.288;2022-10-16T12:37:49;4.45;;;3.15;;
13040;SDS011;6587;42.728;23.288;2022-10-16T12:40:23;4.07;;;3.67;;
13040;SDS011;6587;42.728;23.288;2022-10-16T12:42:51;4.43;;;3.67;;
13040;SDS011;6587;42.728;23.288;2022-10-16T12:45:25;5.35;;;3.40;;
13040;SDS011;6587;42.728;23.288;2022-10-16T12:47:52;4.35;;;3.22;;
13040;SDS011;6587;42.728;23.288;2022-10-16T12:50:24;4.68;;;3.47;;
13040;SDS011;6587;42.728;23.288;2022-10-16T12:52:52;3.55;;;3.08;;
13040;SDS011;6587;42.728;23.288;2022-10-16T12:55:20;6.88;;;3.67;;
13040;SDS011;6587;42.728;23.288;2022-10-16T12:57:51;4.63;;;3.45;;
13040;SDS011;6587;42.728;23.288;2022-10-16T13:00:24;3.58;;;3.00;;
13040;SDS011;6587;42.728;23.288;2022-10-16T13:05:45;4.43;;;2.88;;
13040;SDS011;6587;42.728;23.288;2022-10-16T13:08:20;4.05;;;3.08;;
13040;SDS011;6587;42.728;23.288;2022-10-16T13:10:53;4.32;;;2.78;;
13040;SDS011;6587;42.728;23.288;2022-10-16T13:13:29;5.47;;;2.70;;
13040;SDS011;6587;42.728;23.288;2022-10-16T13:16:03;3.78;;;2.50;;
13040;SDS011;6587;42.728;23.288;2022-10-16T13:18:34;3.10;;;2.67;;
13040;SDS011;6587;42.728;23.288;2022-10-16T13:21:11;5.35;;;2.60;;
13040;SDS011;6587;42.728;23.288;2022-10-16T13:23:42;5.32;;;2.70;;
13040;SDS011;6587;42.728;23.288;2022-10-16T13:26:15;2.58;;;2.38;;
13040;SDS011;6587;42.728;23.288;2022-10-16T13:28:43;4.20;;;2.95;;
13040;SDS011;6587;42.728;23.288;2022-10-16T13:31:12;3.72;;;2.90;;
13040;SDS011;6587;42.728;23.288;2022-10-16T13:33:41;2.60;;;2.40;;
13040;SDS011;6587;42.728;23.288;2022-10-16T13:36:17;3.00;;;2.70;;
13040;SDS011;6587;42.728;23.288;2022-10-16T13:38:46;4.68;;;2.95;;
13040;SDS011;6587;42.728;23.288;2022-10-16T13:41:14;4.05;;;2.70;;
13040;SDS011;6587;42.728;23.288;2022-10-16T13:43:41;3.45;;;3.10;;
13040;SDS011;6587;42.728;23.288;2022-10-16T13:46:11;3.13;;;2.83;;
13040;SDS011;6587;42.728;23.288;2022-10-16T13:48:38;5.85;;;2.72;;
13040;SDS011;6587;42.728;23.288;2022-10-16T13:51:06;3.97;;;2.45;;
13040;SDS011;6587;42.728;23.288;2022-10-16T13:53:37;3.75;;;2.17;;
13040;SDS011;6587;42.728;23.288;2022-10-16T13:56:07;5.07;;;2.90;;
13040;SDS011;6587;42.728;23.288;2022-10-16T13:58:34;4.10;;;2.50;;
13040;SDS011;6587;42.728;23.288;2022-10-16T14:01:01;3.47;;;2.70;;
13040;SDS011;6587;42.728;23.288;2022-10-16T14:03:30;5.55;;;3.25;;
13040;SDS011;6587;42.728;23.288;2022-10-16T14:05:59;3.58;;;2.88;;
13040;SDS011;6587;42.728;23.288;2022-10-16T14:08:27;4.85;;;2.88;;
13040;SDS011;6587;42.728;23.288;2022-10-16T14:10:54;18.77;;;16.92;;
13040;SDS011;6587;42.728;23.288;2022-10-16T14:13:26;5.38;;;3.28;;
13040;SDS011;6587;42.728;23.288;2022-10-16T14:15:53;3.00;;;2.70;;
13040;SDS011;6587;42.728;23.288;2022-10-16T14:18:23;3.28;;;2.60;;
13040;SDS011;6587;42.728;23.288;2022-10-16T14:20:51;3.78;;;2.60;;
13040;SDS011;6587;42.728;23.288;2022-10-16T14:23:19;4.15;;;3.38;;
13040;SDS011;6587;42.728;23.288;2022-10-16T14:25:46;4.63;;;2.85;;
13040;SDS011;6587;42.728;23.288;2022-10-16T14:28:15;3.20;;;2.90;;
13040;SDS011;6587;42.728;23.288;2022-10-16T14:30:50;4.43;;;2.88;;
13040;SDS011;6587;42.728;23.288;2022-10-16T14:33:21;3.40;;;2.97;;
13040;SDS011;6587;42.728;23.288;2022-10-16T14:35:59;5.40;;;3.00;;
13040;SDS011;6587;42.728;23.288;2022-10-16T14:38:26;4.05;;;3.10;;
13040;SDS011;6587;42.728;23.288;2022-10-16T14:40:52;4.67;;;3.23;;
13040;SDS011;6587;42.728;23.288;2022-10-16T14:43:20;5.13;;;3.40;;
13040;SDS011;6587;42.728;23.288;2022-10-16T14:45:51;3.57;;;2.77;;